Time;durP1;ratioP1;P1;durP2;ratioP2;P2;SDS_P1;SDS_P2;PMS_P1;PMS_P2;Temp;Humidity;BMP_temperature;BMP_pressure;BME280_temperature;BME280_humidity;BME280_pressure;Samples;Min_cycle;Max_cycle;Signal;HPM_P1;HPM_P2
2024/03/29 00:02:05;;;;;;;;;;;8.90;99.90;;;;;;4996891;28;20895;-78
2024/03/29 00:04:30;;;;;;;;;;;8.90;99.90;;;;;;4997263;28;19925;-78
2024/03/29 00:06:56;;;;;;;;;;;8.90;99.90;;;;;;4981147;28;19914;-77
2024/03/29 00:09:21;;;;;;;;;;;8.90;99.90;;;;;;4994114;28;19920;-78
2024/03/29 00:11:47;;;;;;;;;;;8.90;99.90;;;;;;4997298;28;19921;-77
2024/03/29 00:14:13;;;;;;;;;;;8.90;99.90;;;;;;4980557;28;20563;-76
2024/03/29 00:16:38;;;;;;;;;;;8.90;99.90;;;;;;5001385;28;19980;-76
2024/03/29 00:19:04;;;;;;;;;;;8.80;99.90;;;;;;4993894;28;19925;-77
2024/03/29 00:21:31;;;;;;;;;;;8.80;99.90;;;;;;5004802;28;19918;-77
2024/03/29 00:23:56;;;;;;;;;;;8.80;99.90;;;;;;5004964;28;19921;-77
2024/03/29 00:26:22;;;;;;;;;;;8.80;99.90;;;;;;5001040;28;19937;-77
2024/03/29 00:28:47;;;;;;;;;;;8.80;99.90;;;;;;4996431;28;20330;-76
2024/03/29 00:31:13;;;;;;;;;;;8.80;99.90;;;;;;4984196;28;19988;-76
2024/03/29 00:33:39;;;;;;;;;;;8.70;99.90;;;;;;4983966;28;19917;-76
2024/03/29 00:36:04;;;;;;;;;;;8.70;99.90;;;;;;5000679;28;19921;-76
2024/03/29 00:38:30;;;;;;;;;;;8.80;99.90;;;;;;4999982;28;20616;-77
2024/03/29 00:40:56;;;;;;;;;;;8.80;99.90;;;;;;5003014;28;19917;-77
2024/03/29 00:43:21;;;;;;;;;;;8.70;99.90;;;;;;4966666;28;19917;-76
2024/03/29 00:45:47;;;;;;;;;;;8.70;99.90;;;;;;4971628;28;19917;-77
2024/03/29 00:48:15;;;;;;;;;;;8.70;99.90;;;;;;4972206;28;19917;-75
2024/03/29 00:50:41;;;;;;;;;;;8.70;99.90;;;;;;4965857;28;19914;-75
2024/03/29 00:53:06;;;;;;;;;;;8.70;99.90;;;;;;5000138;28;19943;-75
2024/03/29 00:55:32;;;;;;;;;;;8.70;99.90;;;;;;5016409;28;20008;-75
2024/03/29 00:57:57;;;;;;;;;;;8.70;99.90;;;;;;5016846;28;19920;-75
2024/03/29 01:00:23;;;;;;;;;;;8.70;99.90;;;;;;4983700;28;19914;-75
2024/03/29 01:02:49;;;;;;;;;;;8.70;99.90;;;;;;5000323;28;20223;-75
2024/03/29 01:05:15;;;;;;;;;;;8.70;99.90;;;;;;4983005;28;19917;-75
2024/03/29 01:07:42;;;;;;;;;;;8.70;99.90;;;;;;4998739;28;20055;-74
2024/03/29 01:10:08;;;;;;;;;;;8.70;99.90;;;;;;4998521;28;19932;-75
2024/03/29 01:12:36;;;;;;;;;;;8.70;99.90;;;;;;5033429;28;19921;-75
2024/03/29 01:15:02;;;;;;;;;;;8.70;99.90;;;;;;5005699;28;20417;-74
2024/03/29 01:17:28;;;;;;;;;;;8.70;99.90;;;;;;5017763;28;19971;-75
2024/03/29 01:19:54;;;;;;;;;;;8.70;99.90;;;;;;5018624;28;19918;-75
2024/03/29 01:22:19;;;;;;;;;;;8.70;99.90;;;;;;5000357;28;19932;-75
2024/03/29 01:24:45;;;;;;;;;;;8.70;99.90;;;;;;5026301;28;19921;-75
2024/03/29 01:27:10;;;;;;;;;;;8.60;99.90;;;;;;5012556;28;20048;-75
2024/03/29 01:29:37;;;;;;;;;;;8.60;99.90;;;;;;5013998;28;19924;-75
2024/03/29 01:32:03;;;;;;;;;;;8.60;99.90;;;;;;5034264;28;19913;-76
2024/03/29 01:34:29;;;;;;;;;;;8.60;99.90;;;;;;5002040;28;19913;-75
2024/03/29 01:36:54;;;;;;;;;;;8.60;99.90;;;;;;5017900;28;19959;-75
2024/03/29 01:39:26;;;;;;;;;;;8.60;99.90;;;;;;5034188;28;20012;-75
2024/03/29 01:41:52;;;;;;;;;;;8.50;99.90;;;;;;5016634;28;19925;-75
2024/03/29 01:44:17;;;;;;;;;;;8.50;99.90;;;;;;5031036;28;19913;-75
2024/03/29 01:46:44;;;;;;;;;;;8.50;99.90;;;;;;5035537;28;19917;-75
2024/03/29 01:49:10;;;;;;;;;;;8.50;99.90;;;;;;5017673;28;19921;-75
2024/03/29 01:51:36;;;;;;;;;;;8.50;99.90;;;;;;5027158;28;19930;-75
2024/03/29 01:54:02;;;;;;;;;;;8.50;99.90;;;;;;5012294;28;19921;-75
2024/03/29 01:56:28;;;;;;;;;;;8.40;99.90;;;;;;5017635;28;20333;-75
2024/03/29 01:58:53;;;;;;;;;;;8.50;99.90;;;;;;5041000;28;19938;-75
2024/03/29 02:01:19;;;;;;;;;;;8.40;99.90;;;;;;5041622;28;20610;-75
2024/03/29 02:03:45;;;;;;;;;;;8.40;99.90;;;;;;5033203;28;19966;-75
2024/03/29 02:06:12;;;;;;;;;;;8.40;99.90;;;;;;5039822;28;19917;-75
2024/03/29 02:08:38;;;;;;;;;;;8.40;99.90;;;;;;5033686;28;19916;-75
2024/03/29 02:11:03;;;;;;;;;;;8.40;99.90;;;;;;5015733;28;20372;-75
2024/03/29 02:13:29;;;;;;;;;;;8.40;99.90;;;;;;5027738;28;19976;-75
2024/03/29 02:15:55;;;;;;;;;;;8.30;99.90;;;;;;5033353;28;19917;-75
2024/03/29 02:18:21;;;;;;;;;;;8.30;99.90;;;;;;5032605;28;19927;-75
2024/03/29 02:20:46;;;;;;;;;;;8.40;99.90;;;;;;5017207;28;20011;-75
2024/03/29 02:23:19;;;;;;;;;;;8.40;99.90;;;;;;5034274;28;19913;-75
2024/03/29 02:25:45;;;;;;;;;;;8.40;99.90;;;;;;4997621;28;19921;-75
2024/03/29 02:28:11;;;;;;;;;;;8.40;99.90;;;;;;5014915;28;20388;-75
2024/03/29 02:30:37;;;;;;;;;;;8.40;99.90;;;;;;5016384;28;20007;-75
2024/03/29 02:33:02;;;;;;;;;;;8.50;99.90;;;;;;5032905;28;20504;-75
2024/03/29 02:35:28;;;;;;;;;;;8.50;99.90;;;;;;5026781;28;19921;-75
2024/03/29 02:37:54;;;;;;;;;;;8.50;99.90;;;;;;5027973;28;19987;-75
2024/03/29 02:40:19;;;;;;;;;;;8.50;99.90;;;;;;5033034;28;19917;-75
2024/03/29 02:42:49;;;;;;;;;;;8.50;99.90;;;;;;5025133;28;20258;-75
2024/03/29 02:45:15;;;;;;;;;;;8.50;99.90;;;;;;5031071;28;20003;-75
2024/03/29 02:47:41;;;;;;;;;;;8.50;99.90;;;;;;5013096;28;20319;-75
2024/03/29 02:50:08;;;;;;;;;;;8.50;99.90;;;;;;5003972;28;19939;-75
2024/03/29 02:52:34;;;;;;;;;;;8.50;99.90;;;;;;5014423;28;19931;-75
2024/03/29 02:55:00;;;;;;;;;;;8.50;99.90;;;;;;5032910;28;20590;-76
2024/03/29 02:57:25;;;;;;;;;;;8.50;99.90;;;;;;5016104;28;20380;-75
2024/03/29 03:00:00;;;;;;;;;;;8.50;99.90;;;;;;5032749;28;19913;-75
2024/03/29 03:02:25;;;;;;;;;;;8.50;99.90;;;;;;5015855;28;19931;-75
2024/03/29 03:04:51;;;;;;;;;;;8.50;99.90;;;;;;5011245;28;20016;-75
2024/03/29 03:12:46;;;;;;;;;;;8.50;99.90;;;;;;5024825;28;20011;-75
2024/03/29 03:15:12;;;;;;;;;;;8.50;99.90;;;;;;5015618;28;20039;-75
2024/03/29 03:17:38;;;;;;;;;;;8.50;99.90;;;;;;5015844;28;20644;-75
2024/03/29 03:20:06;;;;;;;;;;;8.40;99.90;;;;;;5028783;28;20372;-75
2024/03/29 03:22:32;;;;;;;;;;;8.40;99.90;;;;;;5032868;28;19928;-75
2024/03/29 03:24:57;;;;;;;;;;;8.40;99.90;;;;;;5032579;28;19913;-75
2024/03/29 03:27:23;;;;;;;;;;;8.40;99.90;;;;;;5016102;28;19913;-75
2024/03/29 03:29:49;;;;;;;;;;;8.40;99.90;;;;;;5014556;28;20226;-75
2024/03/29 03:32:14;;;;;;;;;;;8.40;99.90;;;;;;5010899;28;20019;-75
2024/03/29 03:34:40;;;;;;;;;;;8.40;99.90;;;;;;5015885;28;20008;-75
2024/03/29 03:37:06;;;;;;;;;;;8.50;99.90;;;;;;5016271;28;19925;-75
2024/03/29 03:39:31;;;;;;;;;;;8.50;99.90;;;;;;4999939;28;19967;-75
2024/03/29 03:41:57;;;;;;;;;;;8.50;99.90;;;;;;5010696;28;19927;-75
2024/03/29 03:44:24;;;;;;;;;;;8.50;99.90;;;;;;5016206;28;20227;-75
2024/03/29 03:46:50;;;;;;;;;;;8.50;99.90;;;;;;5028195;28;19964;-75
2024/03/29 03:49:16;;;;;;;;;;;8.50;99.90;;;;;;5014799;28;19917;-75
2024/03/29 03:51:42;;;;;;;;;;;8.40;99.90;;;;;;5015766;28;19924;-75
2024/03/29 03:54:08;;;;;;;;;;;8.40;99.90;;;;;;5032467;28;19932;-75
2024/03/29 03:56:33;;;;;;;;;;;8.40;99.90;;;;;;5042835;28;19913;-75
2024/03/29 03:58:59;;;;;;;;;;;8.40;99.90;;;;;;5036285;28;20318;-75
2024/03/29 04:01:25;;;;;;;;;;;8.40;99.90;;;;;;5046790;28;20409;-75
2024/03/29 04:03:50;;;;;;;;;;;8.40;99.90;;;;;;5017428;28;19917;-75
2024/03/29 04:06:16;;;;;;;;;;;8.40;99.90;;;;;;5019007;28;19914;-75
2024/03/29 04:08:43;;;;;;;;;;;8.40;99.90;;;;;;5020372;28;19913;-75
2024/03/29 04:11:09;;;;;;;;;;;8.40;99.90;;;;;;5020050;28;19921;-75
2024/03/29 04:13:36;;;;;;;;;;;8.40;99.90;;;;;;5035257;28;19924;-75
2024/03/29 04:16:05;;;;;;;;;;;8.40;99.90;;;;;;5013435;28;20689;-75
2024/03/29 04:18:31;;;;;;;;;;;8.40;99.90;;;;;;5035761;28;19924;-75
2024/03/29 04:21:00;;;;;;;;;;;8.40;99.90;;;;;;5029293;28;19973;-74
2024/03/29 04:23:25;;;;;;;;;;;8.30;99.90;;;;;;5036654;28;19917;-75
2024/03/29 04:26:00;;;;;;;;;;;8.30;99.90;;;;;;5016090;28;19921;-75
2024/03/29 04:28:26;;;;;;;;;;;8.30;99.90;;;;;;5016704;28;19917;-75
2024/03/29 04:30:58;;;;;;;;;;;8.30;99.90;;;;;;5030122;28;19914;-75
2024/03/29 04:33:24;;;;;;;;;;;8.30;99.90;;;;;;5020181;28;20478;-75
2024/03/29 04:35:52;;;;;;;;;;;8.30;99.90;;;;;;5029001;28;19955;-75
2024/03/29 04:38:18;;;;;;;;;;;8.20;99.90;;;;;;5036838;28;19945;-75
2024/03/29 04:40:43;;;;;;;;;;;8.20;99.90;;;;;;5036369;28;20306;-75
2024/03/29 04:43:09;;;;;;;;;;;8.20;99.90;;;;;;5037614;28;20008;-75
2024/03/29 04:45:35;;;;;;;;;;;8.30;99.90;;;;;;5036332;28;19928;-75
2024/03/29 04:48:01;;;;;;;;;;;8.20;99.90;;;;;;5032248;28;20268;-76
2024/03/29 04:50:27;;;;;;;;;;;8.20;99.90;;;;;;5018984;28;19917;-75
2024/03/29 04:52:54;;;;;;;;;;;8.20;99.90;;;;;;5035799;28;19975;-75
2024/03/29 04:55:20;;;;;;;;;;;8.20;99.90;;;;;;5023838;28;20338;-75
2024/03/29 04:57:45;;;;;;;;;;;8.20;99.90;;;;;;5020675;28;19917;-75
2024/03/29 05:00:11;;;;;;;;;;;8.10;99.90;;;;;;5036785;28;19999;-75
2024/03/29 05:02:37;;;;;;;;;;;8.20;99.90;;;;;;5019868;28;19940;-75
2024/03/29 05:05:04;;;;;;;;;;;8.20;99.90;;;;;;5016026;28;20009;-75
2024/03/29 05:07:31;;;;;;;;;;;8.20;99.90;;;;;;5016424;28;19968;-75
2024/03/29 05:09:57;;;;;;;;;;;8.20;99.90;;;;;;5015562;28;19921;-75
2024/03/29 05:12:22;;;;;;;;;;;8.20;99.90;;;;;;5011367;28;19925;-75
2024/03/29 05:14:49;;;;;;;;;;;8.20;99.90;;;;;;4995929;28;19917;-75
2024/03/29 05:17:15;;;;;;;;;;;8.30;99.90;;;;;;4993162;28;20056;-75
2024/03/29 05:19:40;;;;;;;;;;;8.20;99.90;;;;;;4998319;28;19944;-75
2024/03/29 05:22:09;;;;;;;;;;;8.30;99.90;;;;;;4979941;28;19913;-75
2024/03/29 05:24:35;;;;;;;;;;;8.30;99.90;;;;;;5012167;28;19913;-75
2024/03/29 05:27:01;;;;;;;;;;;8.30;99.90;;;;;;4990352;28;19925;-75
2024/03/29 05:29:26;;;;;;;;;;;8.30;99.90;;;;;;4997522;28;19917;-75
2024/03/29 05:31:52;;;;;;;;;;;8.30;99.90;;;;;;4998912;28;20315;-75
2024/03/29 05:34:18;;;;;;;;;;;8.30;99.90;;;;;;4998667;28;19924;-75
2024/03/29 05:36:45;;;;;;;;;;;8.30;99.90;;;;;;4998337;28;19960;-75
2024/03/29 05:39:11;;;;;;;;;;;8.30;99.90;;;;;;4981793;28;20012;-76
2024/03/29 05:41:36;;;;;;;;;;;8.30;99.90;;;;;;4997868;28;20012;-75
2024/03/29 05:44:03;;;;;;;;;;;8.30;99.90;;;;;;4997767;28;19964;-76
2024/03/29 05:46:29;;;;;;;;;;;8.30;99.90;;;;;;5014790;28;19917;-75
2024/03/29 05:48:54;;;;;;;;;;;8.30;99.90;;;;;;4999042;28;19983;-76
2024/03/29 05:51:20;;;;;;;;;;;8.40;99.90;;;;;;4966570;28;19917;-76
2024/03/29 05:53:45;;;;;;;;;;;8.40;99.90;;;;;;4979803;28;20725;-75
2024/03/29 05:56:11;;;;;;;;;;;8.40;99.90;;;;;;4996176;28;20543;-76
2024/03/29 05:58:37;;;;;;;;;;;8.40;99.90;;;;;;4997987;28;19921;-76
2024/03/29 06:01:02;;;;;;;;;;;8.40;99.90;;;;;;4998012;28;19918;-75
2024/03/29 06:03:29;;;;;;;;;;;8.40;99.90;;;;;;5013748;28;20250;-76
2024/03/29 06:05:55;;;;;;;;;;;8.40;99.90;;;;;;5006891;28;19917;-75
2024/03/29 06:08:21;;;;;;;;;;;8.40;99.90;;;;;;4998250;28;19918;-75
2024/03/29 06:10:46;;;;;;;;;;;8.50;99.90;;;;;;5017473;28;19921;-75
2024/03/29 06:13:29;;;;;;;;;;;8.50;99.90;;;;;;5013879;28;20258;-75
2024/03/29 06:18:39;;;;;;;;;;;8.50;99.90;;;;;;5020568;28;20321;-76
2024/03/29 06:21:05;;;;;;;;;;;8.60;99.90;;;;;;4998719;28;20020;-75
2024/03/29 06:23:30;;;;;;;;;;;8.60;99.90;;;;;;5033298;28;19952;-75
2024/03/29 06:25:56;;;;;;;;;;;8.70;99.90;;;;;;5017557;28;19913;-76
2024/03/29 06:28:22;;;;;;;;;;;8.80;99.90;;;;;;5034692;28;19949;-75
2024/03/29 06:30:47;;;;;;;;;;;8.80;99.90;;;;;;5004939;28;19962;-75
2024/03/29 06:33:13;;;;;;;;;;;8.90;99.90;;;;;;5014611;28;19975;-75
2024/03/29 06:35:39;;;;;;;;;;;9.00;99.90;;;;;;5021221;28;20361;-75
2024/03/29 06:38:04;;;;;;;;;;;9.00;99.90;;;;;;5018100;28;19913;-75
2024/03/29 06:40:30;;;;;;;;;;;9.10;99.90;;;;;;5012920;28;20002;-76
2024/03/29 06:42:58;;;;;;;;;;;9.10;99.90;;;;;;5035482;28;20038;-75
2024/03/29 06:45:23;;;;;;;;;;;9.20;99.90;;;;;;5011001;28;20044;-75
2024/03/29 06:47:49;;;;;;;;;;;9.20;99.90;;;;;;4997828;28;19987;-75
2024/03/29 06:50:15;;;;;;;;;;;9.20;99.90;;;;;;4997948;28;20629;-76
2024/03/29 06:52:40;;;;;;;;;;;9.20;99.90;;;;;;5013866;28;19917;-75
2024/03/29 06:55:06;;;;;;;;;;;9.20;99.90;;;;;;5018084;28;19913;-75
2024/03/29 06:57:32;;;;;;;;;;;9.20;99.90;;;;;;5029941;28;19913;-75
2024/03/29 06:59:58;;;;;;;;;;;9.30;99.90;;;;;;5016100;28;19978;-75
2024/03/29 07:02:25;;;;;;;;;;;9.30;99.90;;;;;;5000901;28;19917;-75
2024/03/29 07:04:51;;;;;;;;;;;9.30;99.90;;;;;;5008818;28;20000;-76
2024/03/29 07:07:17;;;;;;;;;;;9.30;99.90;;;;;;5019288;28;19925;-76
2024/03/29 07:09:43;;;;;;;;;;;9.30;99.90;;;;;;5033490;28;19975;-76
2024/03/29 07:12:09;;;;;;;;;;;9.30;99.90;;;;;;5000805;28;20215;-75
2024/03/29 07:14:35;;;;;;;;;;;9.40;99.90;;;;;;4980116;28;19925;-75
2024/03/29 07:17:03;;;;;;;;;;;9.40;99.90;;;;;;4980296;28;19917;-75
2024/03/29 07:19:28;;;;;;;;;;;9.40;99.90;;;;;;4992868;28;19918;-75
2024/03/29 07:21:54;;;;;;;;;;;9.40;99.90;;;;;;5013522;28;19928;-75
2024/03/29 07:24:20;;;;;;;;;;;9.30;99.90;;;;;;4997318;28;19917;-76
2024/03/29 07:26:46;;;;;;;;;;;9.30;99.90;;;;;;5013613;28;19914;-76
2024/03/29 07:29:11;;;;;;;;;;;9.30;99.90;;;;;;4997553;28;20310;-75
2024/03/29 07:31:37;;;;;;;;;;;9.30;99.90;;;;;;4992301;28;19928;-75
2024/03/29 07:34:02;;;;;;;;;;;9.30;99.90;;;;;;4985527;28;19918;-75
2024/03/29 07:36:33;;;;;;;;;;;9.30;99.90;;;;;;4983613;28;19914;-75
2024/03/29 07:38:59;;;;;;;;;;;9.30;99.90;;;;;;5015085;28;20322;-76
2024/03/29 07:41:25;;;;;;;;;;;9.30;99.90;;;;;;5001304;28;20386;-76
2024/03/29 07:43:52;;;;;;;;;;;9.30;99.90;;;;;;4974036;28;19924;-75
2024/03/29 07:46:17;;;;;;;;;;;9.30;99.90;;;;;;4986148;28;19921;-75
2024/03/29 07:48:44;;;;;;;;;;;9.30;99.90;;;;;;5005195;28;19968;-75
2024/03/29 07:51:10;;;;;;;;;;;9.30;99.90;;;;;;4997296;28;19917;-75
2024/03/29 07:53:35;;;;;;;;;;;9.30;99.90;;;;;;4994573;28;19921;-75
2024/03/29 07:56:01;;;;;;;;;;;9.40;99.90;;;;;;4980624;28;20004;-75
2024/03/29 07:58:27;;;;;;;;;;;9.40;99.90;;;;;;4980287;28;19928;-75
2024/03/29 08:00:53;;;;;;;;;;;9.40;99.90;;;;;;4988316;28;19918;-75
2024/03/29 08:03:18;;;;;;;;;;;9.50;99.90;;;;;;4967861;28;19924;-75
2024/03/29 08:05:55;;;;;;;;;;;9.50;99.90;;;;;;5016893;28;20327;-75
2024/03/29 08:08:22;;;;;;;;;;;9.50;99.90;;;;;;5000213;28;19917;-75
2024/03/29 08:10:47;;;;;;;;;;;9.60;99.90;;;;;;4986249;28;19932;-75
2024/03/29 08:13:15;;;;;;;;;;;9.60;99.90;;;;;;4988976;28;19921;-75
2024/03/29 08:15:41;;;;;;;;;;;9.70;99.90;;;;;;5003279;28;19966;-76
2024/03/29 08:18:07;;;;;;;;;;;9.70;99.90;;;;;;5024946;28;20340;-74
2024/03/29 08:20:32;;;;;;;;;;;9.70;99.90;;;;;;4996293;28;20373;-74
2024/03/29 08:22:59;;;;;;;;;;;9.80;99.90;;;;;;5003167;28;20269;-75
2024/03/29 08:25:27;;;;;;;;;;;9.80;99.90;;;;;;5001038;28;19952;-74
2024/03/29 08:27:58;;;;;;;;;;;9.90;99.90;;;;;;5004445;28;20519;-74
2024/03/29 08:30:24;;;;;;;;;;;9.90;99.90;;;;;;5019609;28;19917;-76
2024/03/29 08:32:52;;;;;;;;;;;10.00;99.90;;;;;;4999208;28;19922;-77
2024/03/29 08:35:18;;;;;;;;;;;10.00;99.90;;;;;;5034797;28;19921;-76
2024/03/29 08:37:44;;;;;;;;;;;10.10;99.90;;;;;;5020484;28;19918;-76
2024/03/29 08:40:09;;;;;;;;;;;10.10;99.90;;;;;;5020204;28;20392;-76
2024/03/29 08:42:37;;;;;;;;;;;10.10;99.90;;;;;;5035745;28;19913;-76
2024/03/29 08:45:05;;;;;;;;;;;10.20;99.90;;;;;;5034166;28;20333;-74
2024/03/29 08:47:31;;;;;;;;;;;10.30;99.90;;;;;;5014836;28;19924;-75
2024/03/29 08:49:57;;;;;;;;;;;10.30;99.90;;;;;;5034864;28;19920;-74
2024/03/29 08:52:22;;;;;;;;;;;10.30;99.90;;;;;;5017828;28;19929;-75
2024/03/29 08:54:48;;;;;;;;;;;10.30;99.90;;;;;;5018650;28;19917;-74
2024/03/29 08:57:14;;;;;;;;;;;10.30;99.90;;;;;;5001444;28;19975;-74
2024/03/29 08:59:41;;;;;;;;;;;10.30;99.90;;;;;;5018848;28;19987;-74
2024/03/29 09:02:06;;;;;;;;;;;10.30;99.90;;;;;;5001308;28;20330;-74
2024/03/29 09:04:34;;;;;;;;;;;10.30;99.90;;;;;;4991243;28;19917;-74
2024/03/29 09:07:01;;;;;;;;;;;10.40;99.90;;;;;;5034856;28;19917;-74
2024/03/29 09:09:27;;;;;;;;;;;10.40;99.90;;;;;;5011406;28;19921;-74
2024/03/29 09:11:53;;;;;;;;;;;10.40;99.90;;;;;;5018484;28;19925;-74
2024/03/29 09:14:18;;;;;;;;;;;10.50;99.90;;;;;;5002270;28;19947;-74
2024/03/29 09:16:47;;;;;;;;;;;10.50;99.90;;;;;;5018552;28;19914;-74
2024/03/29 09:19:13;;;;;;;;;;;10.50;99.90;;;;;;4994058;28;19967;-74
2024/03/29 09:21:39;;;;;;;;;;;10.60;99.90;;;;;;5016569;28;19928;-74
2024/03/29 09:24:05;;;;;;;;;;;10.60;99.90;;;;;;5013743;28;19913;-74
2024/03/29 09:26:32;;;;;;;;;;;10.60;99.90;;;;;;5035017;28;19913;-74
2024/03/29 09:28:58;;;;;;;;;;;10.70;99.90;;;;;;5014507;28;19917;-74
2024/03/29 09:31:24;;;;;;;;;;;10.70;99.90;;;;;;5018392;28;19928;-74
2024/03/29 09:33:52;;;;;;;;;;;10.70;99.90;;;;;;5001827;28;19920;-74
2024/03/29 09:36:23;;;;;;;;;;;10.70;99.90;;;;;;5017664;28;19917;-74
2024/03/29 09:38:51;;;;;;;;;;;10.80;99.90;;;;;;5026536;28;20416;-74
2024/03/29 09:41:20;;;;;;;;;;;10.80;99.90;;;;;;5034204;28;19921;-76
2024/03/29 09:43:47;;;;;;;;;;;10.80;99.90;;;;;;4996340;28;20650;-76
2024/03/29 09:46:13;;;;;;;;;;;10.90;99.90;;;;;;5019201;28;19921;-76
2024/03/29 09:48:39;;;;;;;;;;;10.90;99.90;;;;;;5019721;28;20008;-76
2024/03/29 09:51:05;;;;;;;;;;;11.00;99.90;;;;;;5019524;28;19980;-76
2024/03/29 09:53:40;;;;;;;;;;;11.10;99.90;;;;;;4981626;28;19952;-76
2024/03/29 09:56:06;;;;;;;;;;;11.10;99.90;;;;;;5017227;28;19917;-77
2024/03/29 09:58:32;;;;;;;;;;;11.20;99.90;;;;;;5017629;28;19917;-76
2024/03/29 10:00:58;;;;;;;;;;;11.20;99.90;;;;;;5021564;28;19921;-76
2024/03/29 10:03:30;;;;;;;;;;;11.30;99.90;;;;;;5033461;28;19924;-76
2024/03/29 10:05:59;;;;;;;;;;;11.40;99.90;;;;;;5012328;28;19914;-76
2024/03/29 10:08:31;;;;;;;;;;;11.40;99.90;;;;;;4997006;28;19917;-76
2024/03/29 10:11:01;;;;;;;;;;;11.40;99.90;;;;;;5005051;28;19925;-75
2024/03/29 10:13:26;;;;;;;;;;;11.50;99.90;;;;;;4997675;28;19921;-76
2024/03/29 10:15:55;;;;;;;;;;;11.50;99.90;;;;;;4965462;28;19964;-76
2024/03/29 10:18:32;;;;;;;;;;;11.50;99.90;;;;;;4993449;28;19917;-74
2024/03/29 10:21:11;;;;;;;;;;;11.60;99.90;;;;;;4976492;28;20242;-77
2024/03/29 10:23:40;;;;;;;;;;;11.70;99.90;;;;;;4987506;28;20016;-77
2024/03/29 10:26:06;;;;;;;;;;;11.80;99.90;;;;;;4962786;28;19914;-77
2024/03/29 10:28:36;;;;;;;;;;;11.80;99.90;;;;;;4979213;28;19914;-77
2024/03/29 10:31:03;;;;;;;;;;;11.90;99.90;;;;;;4974623;28;19922;-77
2024/03/29 10:33:32;;;;;;;;;;;12.00;99.90;;;;;;4974605;28;19941;-76
2024/03/29 10:36:04;;;;;;;;;;;12.00;99.90;;;;;;4965262;28;19944;-76
2024/03/29 10:38:33;;;;;;;;;;;12.10;99.90;;;;;;4967870;28;20142;-76
2024/03/29 10:41:00;;;;;;;;;;;12.20;99.90;;;;;;4968345;28;20235;-77
2024/03/29 10:43:26;;;;;;;;;;;12.30;99.90;;;;;;5013758;28;19922;-75
2024/03/29 10:45:58;;;;;;;;;;;12.40;99.90;;;;;;4979588;28;19913;-75
2024/03/29 10:48:26;;;;;;;;;;;12.40;99.90;;;;;;4993100;28;20287;-75
2024/03/29 10:50:52;;;;;;;;;;;12.50;99.90;;;;;;4978376;28;19917;-77
2024/03/29 10:53:17;;;;;;;;;;;12.70;99.90;;;;;;5013133;28;20002;-76
2024/03/29 10:55:46;;;;;;;;;;;12.70;99.90;;;;;;4981314;28;19956;-76
2024/03/29 10:58:12;;;;;;;;;;;12.80;99.90;;;;;;4997175;28;19921;-77
2024/03/29 11:00:47;;;;;;;;;;;12.80;99.90;;;;;;4978883;28;19953;-76
2024/03/29 11:03:17;;;;;;;;;;;12.80;99.90;;;;;;4981527;28;19984;-77
2024/03/29 11:05:49;;;;;;;;;;;12.80;99.90;;;;;;4997079;28;19924;-76
2024/03/29 11:08:16;;;;;;;;;;;13.00;99.90;;;;;;4975175;28;19953;-75
2024/03/29 11:10:45;;;;;;;;;;;13.10;99.90;;;;;;4992720;28;20006;-76
2024/03/29 11:13:14;;;;;;;;;;;13.20;99.90;;;;;;4999834;28;19917;-74
2024/03/29 11:15:40;;;;;;;;;;;13.40;99.90;;;;;;5007740;28;19917;-74
2024/03/29 11:18:06;;;;;;;;;;;13.40;99.90;;;;;;5000154;28;20388;-74
2024/03/29 11:20:36;;;;;;;;;;;13.40;99.90;;;;;;5027752;28;19917;-74
2024/03/29 11:23:10;;;;;;;;;;;13.40;99.90;;;;;;5004491;28;20378;-74
2024/03/29 11:25:43;;;;;;;;;;;13.40;99.90;;;;;;5012294;28;19975;-74
2024/03/29 11:28:13;;;;;;;;;;;13.40;99.90;;;;;;5012159;28;19956;-75
2024/03/29 11:30:39;;;;;;;;;;;13.50;99.90;;;;;;5044544;28;20695;-75
2024/03/29 11:33:05;;;;;;;;;;;13.60;99.90;;;;;;5033526;28;19928;-74
2024/03/29 11:35:33;;;;;;;;;;;13.60;99.90;;;;;;4999823;28;19916;-74
2024/03/29 11:37:58;;;;;;;;;;;13.60;99.90;;;;;;5015997;28;19917;-74
2024/03/29 11:40:29;;;;;;;;;;;13.60;99.90;;;;;;5031681;28;20011;-75
2024/03/29 11:42:54;;;;;;;;;;;13.70;99.90;;;;;;5015708;28;19921;-75
2024/03/29 11:45:20;;;;;;;;;;;13.70;99.90;;;;;;4999483;28;19917;-74
2024/03/29 11:47:47;;;;;;;;;;;13.70;99.90;;;;;;5030628;28;19928;-77
2024/03/29 11:50:13;;;;;;;;;;;13.70;99.90;;;;;;5033287;28;19917;-77
2024/03/29 11:52:39;;;;;;;;;;;13.70;99.90;;;;;;5046960;28;20392;-77
2024/03/29 11:55:05;;;;;;;;;;;13.70;99.90;;;;;;5014166;28;19914;-77
2024/03/29 11:57:32;;;;;;;;;;;13.70;99.90;;;;;;5034715;28;19913;-77
2024/03/29 11:59:58;;;;;;;;;;;13.80;99.90;;;;;;5046009;28;19932;-78
2024/03/29 12:02:23;;;;;;;;;;;13.80;99.90;;;;;;4997695;28;19918;-77
2024/03/29 12:04:49;;;;;;;;;;;13.90;99.90;;;;;;5005912;28;19913;-80
2024/03/29 12:07:15;;;;;;;;;;;14.20;99.90;;;;;;5016695;28;19944;-77
2024/03/29 12:09:40;;;;;;;;;;;14.20;99.90;;;;;;5008550;28;20634;-76
2024/03/29 12:12:09;;;;;;;;;;;14.40;99.90;;;;;;5001133;28;19929;-76
2024/03/29 12:14:37;;;;;;;;;;;14.30;99.90;;;;;;4995446;28;19963;-76
2024/03/29 12:17:11;;;;;;;;;;;14.30;99.90;;;;;;4979518;28;19921;-76
2024/03/29 12:19:41;;;;;;;;;;;14.30;99.90;;;;;;4981096;28;19995;-75
2024/03/29 12:22:06;;;;;;;;;;;14.20;99.90;;;;;;4984028;28;19916;-75
2024/03/29 12:24:32;;;;;;;;;;;14.20;99.90;;;;;;4968186;28;20027;-75
2024/03/29 12:26:58;;;;;;;;;;;14.10;99.90;;;;;;4968882;28;19918;-75
2024/03/29 12:29:24;;;;;;;;;;;14.00;99.90;;;;;;4998914;28;19924;-75
2024/03/29 12:31:57;;;;;;;;;;;14.00;99.90;;;;;;4997181;28;19913;-75
2024/03/29 12:34:23;;;;;;;;;;;14.10;99.90;;;;;;5013427;28;19929;-77
2024/03/29 12:36:49;;;;;;;;;;;14.00;99.90;;;;;;4985840;28;19917;-78
2024/03/29 12:39:15;;;;;;;;;;;14.00;99.90;;;;;;4991808;28;19948;-78
2024/03/29 12:41:41;;;;;;;;;;;14.00;99.90;;;;;;5001210;28;19992;-77
2024/03/29 12:44:06;;;;;;;;;;;14.00;99.90;;;;;;5000860;28;20016;-77
2024/03/29 12:46:32;;;;;;;;;;;13.90;99.90;;;;;;4983434;28;19921;-78
2024/03/29 12:48:59;;;;;;;;;;;13.90;99.90;;;;;;4999358;28;20360;-78
2024/03/29 12:51:25;;;;;;;;;;;13.90;99.90;;;;;;4984628;28;19971;-78
2024/03/29 12:53:50;;;;;;;;;;;13.70;99.90;;;;;;4986488;28;19922;-77
2024/03/29 12:56:16;;;;;;;;;;;13.70;99.90;;;;;;4966480;28;19925;-78
2024/03/29 12:58:42;;;;;;;;;;;13.70;99.90;;;;;;4999175;28;20387;-77
2024/03/29 13:01:09;;;;;;;;;;;13.70;99.90;;;;;;4988870;28;19953;-80
2024/03/29 13:03:38;;;;;;;;;;;13.70;99.90;;;;;;5000529;28;20008;-79
2024/03/29 13:06:03;;;;;;;;;;;13.70;99.90;;;;;;4983430;28;19917;-80
2024/03/29 13:08:29;;;;;;;;;;;13.70;99.90;;;;;;4996447;28;20223;-80
2024/03/29 13:10:55;;;;;;;;;;;13.60;99.90;;;;;;4994737;28;19921;-80
2024/03/29 13:13:21;;;;;;;;;;;13.70;99.90;;;;;;4984214;28;19931;-80
2024/03/29 13:15:47;;;;;;;;;;;13.70;99.90;;;;;;4965276;28;20012;-77
2024/03/29 13:18:16;;;;;;;;;;;13.80;99.90;;;;;;4995195;28;20000;-77
2024/03/29 13:20:42;;;;;;;;;;;13.80;99.90;;;;;;4983319;28;19914;-77
2024/03/29 13:23:08;;;;;;;;;;;13.90;99.90;;;;;;4982521;28;19917;-77
2024/03/29 13:25:37;;;;;;;;;;;13.90;99.90;;;;;;4989484;28;19924;-78
2024/03/29 13:28:03;;;;;;;;;;;14.00;99.90;;;;;;4999425;28;19948;-79
2024/03/29 13:30:42;;;;;;;;;;;14.10;99.90;;;;;;4967383;28;20405;-77
2024/03/29 13:33:10;;;;;;;;;;;14.00;99.90;;;;;;5014588;28;19937;-77
2024/03/29 13:35:39;;;;;;;;;;;14.00;99.90;;;;;;4984087;28;19922;-79
2024/03/29 13:38:08;;;;;;;;;;;14.00;99.90;;;;;;5000250;28;20021;-80
2024/03/29 13:40:34;;;;;;;;;;;14.00;99.90;;;;;;4965993;28;19920;-77
2024/03/29 13:42:59;;;;;;;;;;;13.90;99.90;;;;;;4982334;28;19913;-77
2024/03/29 13:45:28;;;;;;;;;;;13.90;99.90;;;;;;5015158;28;20366;-76
2024/03/29 13:47:54;;;;;;;;;;;13.90;99.90;;;;;;4998302;28;19921;-76
2024/03/29 13:50:20;;;;;;;;;;;14.00;99.90;;;;;;4998137;28;19914;-75
2024/03/29 13:52:47;;;;;;;;;;;14.00;99.90;;;;;;5014315;28;20020;-76
2024/03/29 13:55:13;;;;;;;;;;;14.00;99.90;;;;;;4997784;28;19917;-75
2024/03/29 13:57:40;;;;;;;;;;;14.00;99.90;;;;;;4983778;28;20000;-74
2024/03/29 14:00:06;;;;;;;;;;;14.10;99.90;;;;;;4998407;28;19917;-74
2024/03/29 14:02:32;;;;;;;;;;;14.10;99.90;;;;;;5004233;28;20338;-75
2024/03/29 14:04:59;;;;;;;;;;;14.20;99.90;;;;;;5012884;28;20353;-75
2024/03/29 14:07:24;;;;;;;;;;;14.20;99.90;;;;;;5011358;28;19913;-75
2024/03/29 14:09:50;;;;;;;;;;;14.20;99.90;;;;;;4997846;28;19924;-74
2024/03/29 14:12:18;;;;;;;;;;;14.40;99.90;;;;;;5010191;28;19925;-74
2024/03/29 14:14:44;;;;;;;;;;;14.40;99.90;;;;;;5020709;28;20211;-74
2024/03/29 14:17:09;;;;;;;;;;;14.50;99.90;;;;;;5031311;28;19919;-74
2024/03/29 14:19:35;;;;;;;;;;;14.40;99.90;;;;;;5027897;28;20367;-75
2024/03/29 14:22:01;;;;;;;;;;;14.40;99.90;;;;;;5001288;28;20300;-77
2024/03/29 14:24:28;;;;;;;;;;;14.50;99.90;;;;;;5033573;28;19917;-78
2024/03/29 14:26:53;;;;;;;;;;;14.50;99.90;;;;;;5033674;28;19971;-75
2024/03/29 14:29:21;;;;;;;;;;;14.60;99.90;;;;;;5017347;28;20230;-74